Lambs Creek, Pennsylvania
Current Conditions -  °F | °C
As of 1:55 AM on Sunday 26 Oct 2014 (Local Time) from KN38 Reporting Station
Few Clouds Few Clouds  
Wind Chill: 50°   Ceiling: Unl
Heat Index: 50°   Visibility: 10mi
Dew Point: 34°   Wind: 17mph
Humidity: 54%   Direction: 310°NW
Pressure: 29.66"   Gusts: 36mph
Location:  41.8345°N, 77.0538°W
Report Text: KN38 260555Z AUTO 31015G31KT 250V330 10SM FEW040 FEW046 10/01 A2966 RMK AO2
Loading
Personal Weather Stations






























Interactive Weather Map
Tropical Storm Tracking
New forecast layout! Learn more

10-Day Weather Forecast

Advertisements
Track Severe Weather on mobile